createdAt,value
2023-03-23T15:57:54.117Z,99251.28
2023-03-23T15:59:28.642Z,99250.38
2023-03-23T16:00:53.862Z,99219.59
2023-03-23T16:02:26.326Z,99237.16
2023-03-23T16:03:59.760Z,99254.72
2023-03-23T16:05:21.862Z,99258.75
2023-03-23T16:06:44.720Z,99235.28
2023-03-23T16:08:10.179Z,99260.84
2023-03-23T16:09:34.680Z,99248.50
2023-03-23T16:10:57.555Z,99253.44
2023-03-23T16:12:20.151Z,99245.50
2023-03-23T16:13:42.617Z,99252.28
2023-03-23T16:15:05.408Z,99250.81
2023-03-23T16:16:31.322Z,99256.25
2023-03-23T16:17:55.605Z,99239.78
2023-03-23T16:19:23.513Z,99242.75
2023-03-23T16:20:45.677Z,99237.16
2023-03-23T16:22:06.901Z,99228.63
2023-03-23T16:23:31.507Z,99236.72
2023-03-23T16:25:09.329Z,99232.22
2023-03-23T16:26:34.422Z,99263.44
2023-03-23T16:27:58.831Z,99268.06
2023-03-23T16:30:58.494Z,99260.75
2023-03-23T16:34:08.053Z,99260.28
2023-03-23T16:35:54.306Z,99214.63
2023-03-23T16:37:19.700Z,99263.97
2023-03-23T16:38:49.249Z,99256.16
2023-03-23T16:40:15.232Z,99270.16
2023-03-23T16:41:38.328Z,99254.50
2023-03-23T16:43:09.776Z,99267.84
2023-03-23T16:44:32.210Z,99262.34
2023-03-23T16:45:58.356Z,99266.38
2023-03-23T16:47:23.602Z,99255.25
2023-03-23T16:48:46.337Z,99265.38
2023-03-23T16:50:11.929Z,99273.53
2023-03-23T16:51:39.814Z,99267.16
2023-03-23T16:53:07.864Z,99269.31
2023-03-23T16:54:30.254Z,99275.22
2023-03-23T16:56:02.184Z,99276.31
2023-03-23T17:00:29.443Z,99266.13
2023-03-23T17:03:58.683Z,99269.78
2023-03-23T17:05:27.769Z,99273.56
2023-03-23T17:09:43.236Z,99273.63
2023-03-23T17:11:07.320Z,99284.91
2023-03-23T17:12:33.094Z,99274.94
2023-03-23T17:13:55.661Z,99252.88
2023-03-23T17:15:19.040Z,99291.34
2023-03-23T17:16:46.247Z,99286.03
2023-03-23T17:18:09.776Z,99298.78
2023-03-23T17:19:32.093Z,99302.66
2023-03-23T17:20:59.199Z,99302.09
2023-03-23T17:22:22.884Z,99279.31
2023-03-23T17:23:46.434Z,99299.28
2023-03-23T17:25:10.178Z,99300.69
2023-03-23T17:26:32.890Z,99302.81
2023-03-23T17:27:58.275Z,99295.03
2023-03-23T17:29:56.899Z,99285.34
2023-03-23T17:31:19.216Z,99305.16
2023-03-23T17:32:41.607Z,99308.97
2023-03-23T17:34:04.266Z,99302.72
2023-03-23T17:35:26.450Z,99301.53
2023-03-23T17:36:57.195Z,99296.00
2023-03-23T17:38:20.973Z,99298.22
2023-03-23T17:39:44.020Z,99304.25
2023-03-23T17:41:08.263Z,99299.31
2023-03-23T17:42:31.759Z,99293.16
2023-03-23T17:43:54.229Z,99307.44
2023-03-23T17:45:16.624Z,99306.63
2023-03-23T17:46:39.519Z,99300.34
2023-03-23T17:48:01.919Z,99294.09
2023-03-23T17:49:24.491Z,99298.94
2023-03-23T17:50:53.522Z,99262.03
2023-03-23T17:52:19.172Z,99304.38
2023-03-23T17:53:48.320Z,99307.09
2023-03-23T17:55:19.471Z,99272.31
2023-03-23T17:56:41.926Z,99272.53
2023-03-23T17:58:04.402Z,99298.38
2023-03-23T17:59:29.584Z,99304.63
2023-03-23T18:00:57.641Z,99309.69
2023-03-23T18:02:20.095Z,99311.81
2023-03-23T18:03:45.857Z,99314.53
2023-03-23T18:05:09.987Z,99321.03
2023-03-23T18:06:35.034Z,99323.97
2023-03-23T18:07:57.265Z,99319.03
2023-03-23T18:09:21.101Z,99327.53
2023-03-23T18:10:46.041Z,99329.91
2023-03-23T18:12:09.051Z,99330.59
2023-03-23T18:13:34.993Z,99316.56
2023-03-23T18:15:00.705Z,99343.34
2023-03-23T18:16:28.458Z,99350.56
2023-03-23T18:17:58.853Z,99324.94
2023-03-23T18:19:21.365Z,99344.53
2023-03-23T18:20:44.920Z,99335.59
2023-03-23T18:22:12.695Z,99317.50
2023-03-23T18:23:39.084Z,99314.69
2023-03-23T18:25:09.966Z,99297.22
2023-03-23T18:26:42.314Z,99316.81
2023-03-23T18:28:08.288Z,99309.38
2023-03-23T18:29:31.126Z,99328.84
2023-03-23T18:31:10.511Z,99315.06
2023-03-23T18:35:08.092Z,99328.47
2023-03-23T18:36:30.426Z,99335.22
2023-03-23T18:37:55.558Z,99340.63
2023-03-23T18:39:18.528Z,99312.81
2023-03-23T18:40:46.100Z,99335.56
2023-03-23T18:42:10.777Z,99337.00
2023-03-23T18:43:33.112Z,99335.22
2023-03-23T18:44:56.343Z,99346.81
2023-03-23T18:46:18.774Z,99356.94
2023-03-23T18:47:43.583Z,99349.84
2023-03-23T18:49:05.987Z,99354.69
2023-03-23T18:50:28.008Z,99364.50
2023-03-23T18:51:49.662Z,99367.91
2023-03-23T18:53:11.752Z,99360.22
2023-03-23T18:54:35.204Z,99358.59
2023-03-23T18:56:07.965Z,99366.50
2023-03-23T18:57:30.060Z,99368.75
2023-03-23T18:58:53.808Z,99367.06
2023-03-23T19:00:17.354Z,99332.13
2023-03-23T19:01:39.900Z,99366.25
2023-03-23T19:03:02.726Z,99363.53
2023-03-23T19:04:35.931Z,99354.69
2023-03-23T19:06:04.230Z,99364.00
2023-03-23T19:07:26.944Z,99350.22
2023-03-23T19:08:58.938Z,99341.13
2023-03-23T19:10:22.542Z,99368.38
2023-03-23T19:11:47.393Z,99366.72
2023-03-23T19:13:10.038Z,99367.53
2023-03-23T19:14:58.316Z,99335.09
2023-03-23T19:16:23.625Z,99329.41
2023-03-23T19:17:46.576Z,99337.13
2023-03-23T19:19:09.651Z,99356.09
2023-03-23T19:21:06.217Z,99347.94
2023-03-23T19:22:15.116Z,99342.19
2023-03-23T19:23:46.585Z,99326.38
2023-03-23T19:25:45.586Z,99343.00
2023-03-23T19:27:11.061Z,99313.88
2023-03-23T19:29:15.449Z,99340.16
2023-03-23T19:30:18.943Z,99350.53
2023-03-23T19:31:46.148Z,99342.88
2023-03-23T19:33:08.686Z,99357.88
2023-03-23T19:34:31.134Z,99338.03
2023-03-23T19:36:06.766Z,99341.94
2023-03-23T19:37:34.743Z,99340.88
2023-03-23T19:39:10.509Z,99347.50
2023-03-23T19:40:40.295Z,99324.72
2023-03-23T19:42:08.458Z,99354.22
2023-03-23T19:43:32.368Z,99343.47
2023-03-23T19:44:54.755Z,99355.03
2023-03-23T19:46:17.827Z,99339.09
2023-03-23T19:47:43.767Z,99327.72
2023-03-23T19:49:08.109Z,99327.50
2023-03-23T19:50:31.909Z,99352.53
2023-03-23T19:52:08.985Z,99331.50
2023-03-23T19:53:39.539Z,99344.28
2023-03-23T19:55:05.086Z,99359.03
2023-03-23T19:56:30.522Z,99348.66
2023-03-23T19:57:53.435Z,99334.56
2023-03-23T19:59:19.725Z,99349.50
2023-03-23T20:00:44.248Z,99360.34
2023-03-23T20:04:09.534Z,99338.84
2023-03-23T20:05:38.141Z,99353.38
2023-03-23T20:07:07.847Z,99350.13
2023-03-23T20:08:33.769Z,99361.84
2023-03-23T20:10:00.944Z,99371.66
2023-03-23T20:11:31.152Z,99372.72
2023-03-23T20:13:17.950Z,99377.31
2023-03-23T20:14:52.065Z,99380.03
2023-03-23T20:16:20.035Z,99375.28
2023-03-23T20:18:08.167Z,99370.78
2023-03-23T20:19:40.242Z,99367.81
2023-03-23T20:21:22.935Z,99347.50
2023-03-23T20:22:48.077Z,99381.53
2023-03-23T20:24:11.926Z,99387.41
2023-03-23T20:25:40.495Z,99389.69
2023-03-23T20:27:04.050Z,99356.16
2023-03-23T20:28:26.355Z,99346.00
2023-03-23T20:29:54.401Z,99370.88
2023-03-23T20:31:24.167Z,99360.38
2023-03-23T20:33:02.368Z,99369.72
2023-03-23T20:34:32.673Z,99375.72
2023-03-23T20:36:04.086Z,99395.81
2023-03-23T20:37:26.228Z,99390.00
2023-03-23T20:38:53.522Z,99373.25
2023-03-23T20:40:15.909Z,99375.97
2023-03-23T20:41:47.746Z,99359.66
2023-03-23T20:43:11.308Z,99400.72
2023-03-23T20:44:40.418Z,99400.72
2023-03-23T20:46:04.964Z,99402.41
2023-03-23T20:47:28.301Z,99363.72
2023-03-23T20:48:52.731Z,99366.84
2023-03-23T20:50:17.371Z,99400.72
2023-03-23T20:51:45.573Z,99377.34
2023-03-23T20:53:17.492Z,99392.84
2023-03-23T20:55:14.273Z,99384.91
2023-03-23T20:56:42.344Z,99361.75
2023-03-23T20:58:05.420Z,99379.59
2023-03-23T20:59:29.069Z,99380.88
2023-03-23T21:00:57.436Z,99372.75
2023-03-23T21:02:27.420Z,99377.00
2023-03-23T21:03:57.161Z,99375.78
2023-03-23T21:05:26.432Z,99351.66
2023-03-23T21:06:54.743Z,99372.56
2023-03-23T21:08:18.417Z,99374.56
2023-03-23T21:09:44.582Z,99380.41
2023-03-23T21:11:09.359Z,99384.41
2023-03-23T21:12:33.947Z,99379.53
2023-03-23T21:13:58.531Z,99392.28
2023-03-23T21:15:23.787Z,99364.97
2023-03-23T21:16:46.896Z,99372.88
2023-03-23T21:18:11.611Z,99390.91
2023-03-23T21:19:33.926Z,99391.16
2023-03-23T21:20:59.391Z,99394.56
2023-03-23T21:22:22.548Z,99395.00
2023-03-23T21:23:46.994Z,99384.25
2023-03-23T21:25:16.806Z,99394.88
2023-03-23T21:26:56.969Z,99405.31
2023-03-23T21:28:21.235Z,99387.56
2023-03-23T21:29:43.385Z,99400.22
2023-03-23T21:31:07.671Z,99406.69
2023-03-23T21:32:32.279Z,99405.47
2023-03-23T21:33:59.310Z,99405.69
2023-03-23T21:35:28.036Z,99408.81
2023-03-23T21:36:50.593Z,99390.03
2023-03-23T21:38:14.514Z,99405.34
2023-03-23T21:39:38.410Z,99410.78
2023-03-23T21:41:01.034Z,99413.72
2023-03-23T21:42:30.479Z,99412.06
2023-03-23T21:44:10.199Z,99419.56
2023-03-23T21:45:40.380Z,99386.47
2023-03-23T21:47:38.152Z,99375.53
2023-03-23T21:49:16.574Z,99412.03
2023-03-23T21:50:42.459Z,99401.06
2023-03-23T21:52:10.897Z,99379.91
2023-03-23T21:54:21.680Z,99386.75
2023-03-23T21:55:48.181Z,99371.22
2023-03-23T21:57:12.831Z,99354.03
2023-03-23T21:58:35.687Z,99403.16
2023-03-23T21:59:58.040Z,99399.84
2023-03-23T22:01:27.136Z,99361.16
2023-03-23T22:02:51.502Z,99390.78
2023-03-23T22:04:22.757Z,99389.31
2023-03-23T22:05:44.838Z,99389.72
2023-03-23T22:07:11.985Z,99396.75
2023-03-23T22:08:35.966Z,99369.88
2023-03-23T22:10:07.072Z,99347.31
2023-03-23T22:11:35.368Z,99375.88
2023-03-23T22:13:03.266Z,99365.56
2023-03-23T22:14:25.801Z,99356.84
2023-03-23T22:15:47.694Z,99392.06
2023-03-23T22:17:18.604Z,99378.38
2023-03-23T22:18:43.242Z,99385.22
2023-03-23T22:20:13.666Z,99390.63
2023-03-23T22:21:38.801Z,99362.69
2023-03-23T22:23:20.930Z,99372.84
2023-03-23T22:24:43.030Z,99354.25
2023-03-23T22:26:11.582Z,99395.91
2023-03-23T22:27:41.377Z,99391.34
2023-03-23T22:29:11.366Z,99343.09
2023-03-23T22:30:33.446Z,99381.47
2023-03-23T22:31:56.689Z,99394.50
2023-03-23T22:33:20.480Z,99385.00
2023-03-23T22:34:52.236Z,99354.19
2023-03-23T22:36:19.167Z,99385.00
2023-03-23T22:37:53.705Z,99394.31
2023-03-23T22:39:16.068Z,99385.22
2023-03-23T22:40:43.638Z,99389.97
2023-03-23T22:42:13.789Z,99342.16
2023-03-23T22:44:27.944Z,99345.47
2023-03-23T22:45:56.040Z,99353.13
2023-03-23T22:47:18.956Z,99374.53
2023-03-23T22:48:43.260Z,99350.72
2023-03-23T22:50:16.084Z,99345.31
2023-03-23T22:51:47.356Z,99381.09
2023-03-23T22:53:10.388Z,99364.13
2023-03-23T22:54:32.756Z,99366.81
2023-03-23T22:55:59.535Z,99382.56
2023-03-23T22:57:24.539Z,99374.72
2023-03-23T22:58:49.527Z,99378.88
2023-03-23T23:00:15.874Z,99385.34
2023-03-23T23:01:58.092Z,99380.50
2023-03-23T23:03:37.318Z,99348.63
2023-03-23T23:05:00.947Z,99337.44
2023-03-23T23:06:24.991Z,99383.66
2023-03-23T23:07:52.445Z,99349.91
2023-03-23T23:09:17.806Z,99349.28
2023-03-23T23:10:42.386Z,99371.41
2023-03-23T23:12:08.079Z,99364.59
2023-03-23T23:13:32.679Z,99381.59
2023-03-23T23:14:55.521Z,99356.56
2023-03-23T23:16:25.297Z,99380.78
2023-03-23T23:17:47.898Z,99350.72
2023-03-23T23:19:12.393Z,99374.13
2023-03-23T23:20:37.826Z,99335.38
2023-03-23T23:22:16.186Z,99364.19
2023-03-23T23:23:42.629Z,99371.19
2023-03-23T23:25:04.906Z,99333.28
2023-03-23T23:26:27.614Z,99377.81
2023-03-23T23:27:59.818Z,99345.69
2023-03-23T23:31:41.605Z,99335.75
2023-03-23T23:33:26.366Z,99334.47
2023-03-23T23:37:38.455Z,99338.59
2023-03-23T23:39:17.255Z,99325.72
2023-03-23T23:40:41.484Z,99362.16
2023-03-23T23:42:21.425Z,99365.38
2023-03-23T23:43:43.808Z,99332.50
2023-03-23T23:45:08.222Z,99368.72
2023-03-23T23:46:34.747Z,99353.38
2023-03-23T23:47:58.136Z,99349.84
2023-03-23T23:49:26.250Z,99309.81
2023-03-23T23:50:51.108Z,99357.69
2023-03-23T23:52:12.224Z,99340.66
2023-03-23T23:53:39.254Z,99359.31
2023-03-23T23:55:15.931Z,99318.53
2023-03-23T23:57:02.388Z,99347.81
2023-03-23T23:58:32.425Z,99357.28
